首页
METAR-TAF:

METAR-TAF

机场 :

Farmington Regional Airport

Farmington, 密蘇里州, 美国

纬度: 37-46N, 经度: 090-26W, 海拔: 288米

当前天气观测

该预报发布于12分钟前的21:56 UTC
风速7节,风向南转西南
温度 9°C
湿度 34%
气压 1030 hPa
能見度: 16.1公里
天空无云

METAR: KFAM 112156Z AUTO 21007KT 10SM CLR 09/M06 A3043 RMK AO2 SLP323 T00941056

时间: 16:08 (22:08 UTC)


TAF: 丢失

超过4000个机场的气象观测和天气预报(METAR&TAF报告)。

可查询的气象台以黄色和红色小点在地图上表示。

将鼠标移到小点上方,可查看气象台名称。

然后点击查看天气观测和预报。

如需切换地图:点击带黑十字的绿色按钮放大地图;点击带横线的绿色按钮缩小地图;或者点击绿色箭头查看邻近地区的地图。


METAR-TAF: